createdAt,value
2019-01-22T00:00:33.537Z,-3.33
2019-01-22T00:01:34.004Z,-3.39
2019-01-22T00:02:33.549Z,-3.36
2019-01-22T00:03:33.558Z,-3.35
2019-01-22T00:04:48.227Z,-3.38
2019-01-22T00:05:33.586Z,-3.35
2019-01-22T00:06:33.592Z,-3.41
2019-01-22T00:07:33.606Z,-3.41
2019-01-22T00:09:33.983Z,-3.39
2019-01-22T00:10:48.281Z,-3.46
2019-01-22T00:11:33.642Z,-3.53
2019-01-22T00:12:33.710Z,-3.49
2019-01-22T00:13:33.712Z,-3.53
2019-01-22T00:14:33.702Z,-3.53
2019-01-22T00:15:33.683Z,-3.52
2019-01-22T00:16:33.688Z,-3.43
2019-01-22T00:17:34.185Z,-3.39
2019-01-22T00:18:33.723Z,-3.35
2019-01-22T00:19:48.379Z,-3.36
2019-01-22T00:20:48.386Z,-3.42
2019-01-22T00:21:33.732Z,-3.38
2019-01-22T00:22:33.856Z,-3.52
2019-01-22T00:23:33.854Z,-3.56
2019-01-22T00:24:33.766Z,-3.59
2019-01-22T00:25:34.112Z,-3.62
2019-01-22T00:26:33.801Z,-3.6
2019-01-22T00:27:48.447Z,-3.6
2019-01-22T00:28:33.862Z,-3.59
2019-01-22T00:29:33.812Z,-3.6
2019-01-22T00:30:33.832Z,-3.64
2019-01-22T00:31:33.600Z,-3.75
2019-01-22T00:32:33.853Z,-3.59
2019-01-22T00:33:33.857Z,-3.6
2019-01-22T00:34:34.098Z,-3.62
2019-01-22T00:35:33.632Z,-3.6
2019-01-22T00:37:33.895Z,-3.53
2019-01-22T00:38:33.912Z,-3.52
2019-01-22T00:40:34.024Z,-3.46
2019-01-22T00:41:33.955Z,-3.46
2019-01-22T00:42:34.559Z,-3.46
2019-01-22T00:43:33.959Z,-3.46
2019-01-22T00:44:33.979Z,-3.57
2019-01-22T00:45:33.979Z,-3.59
2019-01-22T00:46:33.996Z,-3.57
2019-01-22T00:47:34.062Z,-3.62
2019-01-22T00:48:34.053Z,-3.75
2019-01-22T00:49:34.011Z,-3.67
2019-01-22T00:50:34.501Z,-3.64
2019-01-22T00:52:48.933Z,-3.75
2019-01-22T00:53:34.054Z,-3.71
2019-01-22T00:54:34.071Z,-3.62
2019-01-22T00:55:34.071Z,-3.59
2019-01-22T00:56:48.788Z,-3.41
2019-01-22T00:57:34.099Z,-3.54
2019-01-22T00:58:34.397Z,-3.53
2019-01-22T00:59:34.130Z,-3.45
2019-01-22T01:00:34.144Z,-3.52
2019-01-22T01:01:34.135Z,-3.57
2019-01-22T01:02:34.146Z,-3.56
2019-01-22T01:03:34.147Z,-3.6
2019-01-22T01:04:34.219Z,-3.56
2019-01-22T01:05:34.170Z,-3.59
2019-01-22T01:06:34.196Z,-3.56
2019-01-22T01:07:48.850Z,-3.66
2019-01-22T01:08:34.206Z,-3.59
2019-01-22T01:09:34.216Z,-3.56
2019-01-22T01:10:34.222Z,-3.6
2019-01-22T01:11:48.988Z,-3.63
2019-01-22T01:12:34.242Z,-3.59
2019-01-22T01:13:34.260Z,-3.57
2019-01-22T01:14:34.265Z,-3.59
2019-01-22T01:15:34.679Z,-3.6
2019-01-22T01:16:34.284Z,-3.6
2019-01-22T01:17:34.297Z,-3.46
2019-01-22T01:18:34.306Z,-3.43
2019-01-22T01:19:34.316Z,-3.38
2019-01-22T01:20:34.322Z,-3.53
2019-01-22T01:21:34.345Z,-3.45
2019-01-22T01:22:34.339Z,-3.59
2019-01-22T01:24:34.361Z,-3.56
2019-01-22T01:25:34.373Z,-3.6
2019-01-22T01:26:34.389Z,-3.53
2019-01-22T01:27:34.473Z,-3.57
2019-01-22T01:28:34.450Z,-3.57
2019-01-22T01:29:34.424Z,-3.56
2019-01-22T01:30:34.422Z,-3.59
2019-01-22T01:31:35.017Z,-3.56
2019-01-22T01:34:34.469Z,-3.62
2019-01-22T01:35:34.476Z,-3.64
2019-01-22T01:36:34.487Z,-3.54
2019-01-22T01:37:34.486Z,-3.59
2019-01-22T01:38:34.502Z,-3.45
2019-01-22T01:39:49.173Z,-3.48
2019-01-22T01:40:34.517Z,-3.53
2019-01-22T01:41:49.186Z,-3.39
2019-01-22T01:42:34.542Z,-3.49
2019-01-22T01:43:34.541Z,-3.54
2019-01-22T01:44:34.560Z,-3.38
2019-01-22T01:45:34.570Z,-3.39
2019-01-22T01:46:49.233Z,-3.38
2019-01-22T01:47:49.591Z,-3.46
2019-01-22T01:48:34.597Z,-3.53
2019-01-22T01:49:34.611Z,-3.42
2019-01-22T01:50:34.624Z,-3.46
2019-01-22T01:51:34.687Z,-3.45
2019-01-22T01:52:34.640Z,-3.33
2019-01-22T01:54:34.677Z,-3.41
2019-01-22T01:55:49.323Z,-3.33
2019-01-22T01:56:49.336Z,-3.3
2019-01-22T01:57:34.696Z,-3.35
2019-01-22T01:58:34.693Z,-3.36
2019-01-22T01:59:34.782Z,-3.33
2019-01-22T02:00:34.776Z,-3.33
2019-01-22T02:01:34.729Z,-3.31
2019-01-22T02:02:34.737Z,-3.21
2019-01-22T02:03:35.114Z,-3.27
2019-01-22T02:05:34.764Z,-3.28
2019-01-22T02:06:34.779Z,-3.28
2019-01-22T02:07:34.782Z,-3.28
2019-01-22T02:08:34.848Z,-3.36
2019-01-22T02:09:34.911Z,-3.25
2019-01-22T02:10:34.867Z,-3.24
2019-01-22T02:11:49.487Z,-3.25
2019-01-22T02:12:34.835Z,-3.3
2019-01-22T02:13:34.857Z,-3.31
2019-01-22T02:14:34.853Z,-3.38
2019-01-22T02:16:34.883Z,-3.3
2019-01-22T02:17:34.941Z,-3.31
2019-01-22T02:18:49.563Z,-3.35
2019-01-22T02:19:34.915Z,-3.31
2019-01-22T02:20:35.235Z,-3.27
2019-01-22T02:21:34.935Z,-3.23
2019-01-22T02:22:49.583Z,-3.41
2019-01-22T02:23:35.587Z,-3.23
2019-01-22T02:24:34.956Z,-3.35
2019-01-22T02:25:34.975Z,-3.27
2019-01-22T02:26:34.974Z,-3.21
2019-01-22T02:27:49.690Z,-3.3
2019-01-22T02:28:49.973Z,-3.15
2019-01-22T02:29:35.008Z,-3.25
2019-01-22T02:30:35.012Z,-3.14
2019-01-22T02:31:49.680Z,-3.14
2019-01-22T02:32:49.688Z,-3.25
2019-01-22T02:33:35.149Z,-3.09
2019-01-22T02:34:35.070Z,-3.07
2019-01-22T02:35:35.076Z,-3.06
2019-01-22T02:36:35.182Z,-3.05
2019-01-22T02:37:35.369Z,-3.06
2019-01-22T02:38:35.146Z,-3.14
2019-01-22T02:39:35.133Z,-3.07
2019-01-22T02:40:35.171Z,-3.12
2019-01-22T02:41:35.127Z,-3.07
2019-01-22T02:42:49.789Z,-3.05
2019-01-22T02:43:35.158Z,-3.03
2019-01-22T02:44:35.151Z,-3
2019-01-22T02:45:35.615Z,-2.88
2019-01-22T02:46:35.183Z,-2.94
2019-01-22T02:47:49.839Z,-2.88
2019-01-22T02:48:35.253Z,-2.82
2019-01-22T02:49:35.213Z,-2.78
2019-01-22T02:50:35.227Z,-2.91
2019-01-22T02:51:35.244Z,-2.81
2019-01-22T02:52:35.244Z,-2.89
2019-01-22T02:53:41.141Z,-2.85
2019-01-22T02:54:35.309Z,-2.81
2019-01-22T02:55:35.264Z,-2.78
2019-01-22T02:56:35.280Z,-2.74
2019-01-22T02:57:35.303Z,-2.73
2019-01-22T02:59:35.317Z,-2.67
2019-01-22T03:00:35.319Z,-2.81
2019-01-22T03:01:35.461Z,-2.82
2019-01-22T03:03:49.999Z,-2.78
2019-01-22T03:04:35.355Z,-2.78
2019-01-22T03:05:35.372Z,-2.79
2019-01-22T03:06:35.432Z,-2.81
2019-01-22T03:07:35.395Z,-2.71
2019-01-22T03:08:35.392Z,-2.6
2019-01-22T03:09:35.416Z,-2.63
2019-01-22T03:10:36.018Z,-2.55
2019-01-22T03:11:35.430Z,-2.7
2019-01-22T03:12:35.443Z,-2.68
2019-01-22T03:13:35.446Z,-2.67
2019-01-22T03:14:50.111Z,-2.63
2019-01-22T03:15:35.478Z,-2.53
2019-01-22T03:16:35.480Z,-2.58
2019-01-22T03:17:35.501Z,-2.6
2019-01-22T03:18:35.792Z,-2.66
2019-01-22T03:19:50.160Z,-2.63
2019-01-22T03:20:50.169Z,-2.52
2019-01-22T03:21:35.535Z,-2.68
2019-01-22T03:22:50.188Z,-2.77
2019-01-22T03:23:50.213Z,-2.7
2019-01-22T03:24:35.559Z,-2.71
2019-01-22T03:25:35.633Z,-2.63
2019-01-22T03:26:50.240Z,-2.67
2019-01-22T03:27:35.701Z,-2.68
2019-01-22T03:28:35.650Z,-2.68
2019-01-22T03:29:35.611Z,-2.68
2019-01-22T03:30:50.508Z,-2.68
2019-01-22T03:31:35.690Z,-2.66
2019-01-22T03:32:35.698Z,-2.66
2019-01-22T03:33:35.653Z,-2.52
2019-01-22T03:34:35.669Z,-2.66
2019-01-22T03:35:36.257Z,-2.63
2019-01-22T03:36:35.720Z,-2.66
2019-01-22T03:37:35.683Z,-2.67
2019-01-22T03:38:35.704Z,-2.71
2019-01-22T03:39:35.756Z,-2.68
2019-01-22T03:40:50.367Z,-2.68
2019-01-22T03:41:35.722Z,-2.63
2019-01-22T03:42:35.732Z,-2.61
2019-01-22T03:43:35.905Z,-2.68
2019-01-22T03:44:36.176Z,-2.7
2019-01-22T03:45:35.758Z,-2.71
2019-01-22T03:46:50.427Z,-2.7
2019-01-22T03:47:35.798Z,-2.7
2019-01-22T03:48:35.796Z,-2.7
2019-01-22T03:49:35.806Z,-2.7
2019-01-22T03:50:35.815Z,-2.71
2019-01-22T03:51:35.828Z,-2.7
2019-01-22T03:52:36.253Z,-2.71
2019-01-22T03:53:53.755Z,-2.81
2019-01-22T03:54:35.852Z,-2.77
2019-01-22T03:55:35.867Z,-2.73
2019-01-22T03:57:50.539Z,-2.88
2019-01-22T03:58:35.919Z,-2.81
2019-01-22T03:59:35.904Z,-2.86
2019-01-22T04:00:35.920Z,-2.85
2019-01-22T04:01:36.214Z,-2.94
2019-01-22T04:02:50.593Z,-3.1
2019-01-22T04:03:35.949Z,-2.99
2019-01-22T04:04:35.951Z,-3.18
2019-01-22T04:06:35.974Z,-3.3
2019-01-22T04:07:35.991Z,-3.33
2019-01-22T04:08:35.985Z,-3.33
2019-01-22T04:09:36.540Z,-3.39
2019-01-22T04:10:36.022Z,-3.35
2019-01-22T04:11:50.732Z,-3.36
2019-01-22T04:12:50.692Z,-3.42
2019-01-22T04:13:36.055Z,-3.42
2019-01-22T04:14:36.050Z,-3.42
2019-01-22T04:16:36.070Z,-3.41
2019-01-22T04:17:50.747Z,-3.39
2019-01-22T04:18:36.434Z,-3.38
2019-01-22T04:19:36.107Z,-3.42
2019-01-22T04:20:36.115Z,-3.42
2019-01-22T04:21:36.126Z,-3.43
2019-01-22T04:23:36.154Z,-3.57
2019-01-22T04:24:36.163Z,-3.56
2019-01-22T04:25:36.168Z,-3.57
2019-01-22T04:26:51.041Z,-3.57
2019-01-22T04:27:36.290Z,-3.59
2019-01-22T04:28:36.195Z,-3.66
2019-01-22T04:29:36.208Z,-3.75
2019-01-22T04:30:36.222Z,-3.86
2019-01-22T04:31:36.230Z,-3.85
2019-01-22T04:32:36.241Z,-3.85
2019-01-22T04:33:36.252Z,-3.9
2019-01-22T04:34:36.270Z,-3.99
2019-01-22T04:35:36.620Z,-4
2019-01-22T04:36:36.274Z,-3.99
2019-01-22T04:37:36.285Z,-4.06
2019-01-22T04:38:36.299Z,-4.14
2019-01-22T04:39:36.310Z,-4.11
2019-01-22T04:40:36.358Z,-4.15
2019-01-22T04:41:36.428Z,-4.18
2019-01-22T04:42:36.343Z,-4.2
2019-01-22T04:43:36.646Z,-4.15
2019-01-22T04:44:36.357Z,-4.24
2019-01-22T04:45:36.374Z,-4.22
2019-01-22T04:46:36.384Z,-4.18
2019-01-22T04:47:36.381Z,-4.15
2019-01-22T04:48:36.387Z,-4.1
2019-01-22T04:49:51.058Z,-4.11
2019-01-22T04:50:36.406Z,-4.22
2019-01-22T04:51:36.470Z,-4.18
2019-01-22T04:52:37.073Z,-4.24
2019-01-22T04:53:36.446Z,-4.2
2019-01-22T04:54:36.469Z,-4.2
2019-01-22T04:55:36.461Z,-4.14
2019-01-22T04:56:36.480Z,-4.07
2019-01-22T04:57:36.482Z,-4.12
2019-01-22T04:58:51.147Z,-4.15
2019-01-22T04:59:36.499Z,-4.14
2019-01-22T05:00:36.690Z,-4.14
2019-01-22T05:01:36.520Z,-4.03
2019-01-22T05:02:36.633Z,-3.99
2019-01-22T05:03:36.588Z,-3.96
2019-01-22T05:04:36.558Z,-3.99
2019-01-22T05:06:36.576Z,-3.88
2019-01-22T05:07:36.585Z,-3.75
2019-01-22T05:08:36.640Z,-3.64
2019-01-22T05:09:37.177Z,-3.64
2019-01-22T05:10:36.602Z,-3.56
2019-01-22T05:11:36.617Z,-3.54
2019-01-22T05:12:36.382Z,-3.59
2019-01-22T05:13:36.638Z,-3.54
2019-01-22T05:14:36.648Z,-3.54
2019-01-22T05:15:36.661Z,-3.41
2019-01-22T05:17:51.487Z,-3.36
2019-01-22T05:18:37.104Z,-3.48
2019-01-22T05:19:36.751Z,-3.36
2019-01-22T05:20:36.697Z,-3.36
2019-01-22T05:21:51.377Z,-3.25
2019-01-22T05:22:36.722Z,-3.39
2019-01-22T05:23:36.735Z,-3.33
2019-01-22T05:24:36.743Z,-3.35
2019-01-22T05:25:36.809Z,-3.41
2019-01-22T05:26:37.244Z,-3.27
2019-01-22T05:27:36.776Z,-3.39
2019-01-22T05:28:36.791Z,-3.35
2019-01-22T05:29:36.791Z,-3.31
2019-01-22T05:30:36.803Z,-3.42
2019-01-22T05:31:36.821Z,-3.36
2019-01-22T05:32:36.817Z,-3.39
2019-01-22T05:33:36.876Z,-3.42
2019-01-22T05:34:36.844Z,-3.38
2019-01-22T05:35:37.104Z,-3.36
2019-01-22T05:36:36.860Z,-3.38
2019-01-22T05:37:51.882Z,-3.35
2019-01-22T05:38:36.880Z,-3.27
2019-01-22T05:39:51.554Z,-3.38
2019-01-22T05:40:36.910Z,-3.28
2019-01-22T05:41:36.918Z,-3.33
2019-01-22T05:42:36.920Z,-3.35
2019-01-22T05:43:37.520Z,-3.39
2019-01-22T05:44:36.988Z,-3.3
2019-01-22T05:45:51.609Z,-3.24
2019-01-22T05:46:36.957Z,-3.24
2019-01-22T05:47:36.968Z,-3.28
2019-01-22T05:48:51.630Z,-3.2
2019-01-22T05:49:37.035Z,-3.31
2019-01-22T05:50:36.999Z,-3.27
2019-01-22T05:51:37.505Z,-3.27
2019-01-22T05:52:51.669Z,-3.25
2019-01-22T05:55:37.040Z,-3.33
2019-01-22T05:56:37.056Z,-3.31
2019-01-22T05:58:37.067Z,-3.33
2019-01-22T05:59:36.832Z,-3.36
2019-01-22T06:00:37.089Z,-3.25
2019-01-22T06:01:37.101Z,-3.28
2019-01-22T06:03:37.122Z,-3.31
2019-01-22T06:04:37.124Z,-3.24
2019-01-22T06:05:37.135Z,-3.23
2019-01-22T06:06:37.194Z,-3.23
2019-01-22T06:07:36.913Z,-3.3
2019-01-22T06:08:37.166Z,-3.25
2019-01-22T06:09:37.174Z,-3.25
2019-01-22T06:10:37.181Z,-3.3
2019-01-22T06:11:37.200Z,-3.3
2019-01-22T06:12:37.206Z,-3.24
2019-01-22T06:13:37.213Z,-3.3
2019-01-22T06:14:37.224Z,-3.28
2019-01-22T06:15:37.236Z,-3.24
2019-01-22T06:16:37.246Z,-3.28
2019-01-22T06:17:37.259Z,-3.3
2019-01-22T06:18:37.323Z,-3.27
2019-01-22T06:19:37.277Z,-3.28
2019-01-22T06:20:37.284Z,-3.25
2019-01-22T06:21:37.303Z,-3.21
2019-01-22T06:22:37.320Z,-3.14
2019-01-22T06:23:37.314Z,-3.23
2019-01-22T06:24:51.985Z,-3.15
2019-01-22T06:25:37.349Z,-3.17
2019-01-22T06:26:37.345Z,-3.24
2019-01-22T06:27:37.351Z,-3.24
2019-01-22T06:28:37.119Z,-3.25
2019-01-22T06:29:37.372Z,-3.23
2019-01-22T06:30:37.147Z,-3.09
2019-01-22T06:31:37.406Z,-3.09
2019-01-22T06:32:38.174Z,-3.12
2019-01-22T06:33:37.420Z,-3.23
2019-01-22T06:34:37.422Z,-3.17
2019-01-22T06:35:52.095Z,-3.2
2019-01-22T06:36:37.443Z,-3.23
2019-01-22T06:37:52.112Z,-3.12
2019-01-22T06:38:37.460Z,-3.09
2019-01-22T06:39:37.470Z,-3.09
2019-01-22T06:40:52.144Z,-3.09
2019-01-22T06:41:37.489Z,-3.1
2019-01-22T06:42:37.512Z,-3.09
2019-01-22T06:43:37.510Z,-3.06
2019-01-22T06:44:37.519Z,-3.12
2019-01-22T06:45:37.530Z,-3.14
2019-01-22T06:46:37.540Z,-3.1
2019-01-22T06:47:37.558Z,-3.09
2019-01-22T06:49:37.566Z,-3
2019-01-22T06:50:37.589Z,-3.09
2019-01-22T06:51:37.588Z,-3.1
2019-01-22T06:52:37.600Z,-3.05
2019-01-22T06:53:52.270Z,-3.1
2019-01-22T06:54:42.090Z,-3.1
2019-01-22T06:55:37.733Z,-3.02
2019-01-22T06:56:52.297Z,-3.06
2019-01-22T06:57:37.648Z,-3.06
2019-01-22T06:58:37.660Z,-3.12
2019-01-22T06:59:37.672Z,-3.06
2019-01-22T07:00:37.675Z,-3.06
2019-01-22T07:01:37.686Z,-3.09
2019-01-22T07:02:37.746Z,-3.09
2019-01-22T07:03:37.706Z,-3.07
2019-01-22T07:04:52.382Z,-3.06
2019-01-22T07:06:37.839Z,-3.07
2019-01-22T07:07:37.747Z,-3.09
2019-01-22T07:08:52.419Z,-3.06
2019-01-22T07:09:37.766Z,-3.03
2019-01-22T07:10:37.777Z,-3.06
2019-01-22T07:12:52.462Z,-3.05
2019-01-22T07:13:37.806Z,-2.97
2019-01-22T07:14:37.818Z,-2.92
2019-01-22T07:15:37.826Z,-2.86
2019-01-22T07:16:37.837Z,-2.88
2019-01-22T07:17:52.515Z,-2.89
2019-01-22T07:18:37.856Z,-2.88
2019-01-22T07:19:37.868Z,-2.88
2019-01-22T07:20:37.874Z,-2.91
2019-01-22T07:21:37.936Z,-2.86
2019-01-22T07:22:37.928Z,-2.85
2019-01-22T07:23:37.903Z,-2.84
2019-01-22T07:24:37.916Z,-2.81
2019-01-22T07:25:52.585Z,-2.78
2019-01-22T07:26:37.939Z,-2.71
2019-01-22T07:27:52.605Z,-2.66
2019-01-22T07:28:37.958Z,-2.64
2019-01-22T07:29:38.023Z,-2.61
2019-01-22T07:30:52.646Z,-2.66
2019-01-22T07:31:37.993Z,-2.67
2019-01-22T07:32:38.009Z,-2.58
2019-01-22T07:33:38.010Z,-2.63
2019-01-22T07:34:38.014Z,-2.53
2019-01-22T07:36:38.037Z,-2.63
2019-01-22T07:37:38.048Z,-2.53
2019-01-22T07:38:38.110Z,-2.49
2019-01-22T07:39:38.114Z,-2.49
2019-01-22T07:40:38.080Z,-2.45
2019-01-22T07:41:38.088Z,-2.52
2019-01-22T07:42:38.093Z,-2.52
2019-01-22T07:43:38.112Z,-2.4
2019-01-22T07:44:38.114Z,-2.42
2019-01-22T07:45:38.125Z,-2.42
2019-01-22T07:46:38.134Z,-2.42
2019-01-22T07:47:38.146Z,-2.4
2019-01-22T07:48:38.160Z,-2.3
2019-01-22T07:49:38.170Z,-2.26
2019-01-22T07:50:38.176Z,-2.34
2019-01-22T07:51:38.181Z,-2.32
2019-01-22T07:52:38.199Z,-2.3
2019-01-22T07:53:38.207Z,-2.29
2019-01-22T07:54:53.719Z,-2.13
2019-01-22T07:55:38.227Z,-2.08
2019-01-22T07:56:37.988Z,-2.1
2019-01-22T07:57:38.249Z,-2.13
2019-01-22T07:58:38.255Z,-2.09
2019-01-22T07:59:53.029Z,-2.05
2019-01-22T08:00:38.331Z,-2.1
2019-01-22T08:01:38.295Z,-1.94
2019-01-22T08:02:38.295Z,-2.02
2019-01-22T08:03:38.305Z,-1.98
2019-01-22T08:04:38.070Z,-1.92
2019-01-22T08:05:38.330Z,-2.02
2019-01-22T08:06:38.341Z,-1.92
2019-01-22T08:07:38.375Z,-2.08
2019-01-22T08:08:38.362Z,-2.02
2019-01-22T08:09:38.379Z,-1.91
2019-01-22T08:10:38.381Z,-1.91
2019-01-22T08:11:53.050Z,-2.12
2019-01-22T08:12:53.061Z,-2.02
2019-01-22T08:13:38.407Z,-1.98
2019-01-22T08:14:38.421Z,-1.85
2019-01-22T08:15:53.094Z,-1.87
2019-01-22T08:16:38.197Z,-1.84
2019-01-22T08:17:38.452Z,-1.73
2019-01-22T08:18:38.516Z,-1.8
2019-01-22T08:19:38.475Z,-1.76
2019-01-22T08:20:38.482Z,-1.66
2019-01-22T08:21:38.498Z,-1.66
2019-01-22T08:22:38.508Z,-1.67
2019-01-22T08:23:38.513Z,-1.56
2019-01-22T08:24:38.523Z,-1.58
2019-01-22T08:25:38.541Z,-1.46
2019-01-22T08:27:53.220Z,-1.49
2019-01-22T08:28:53.226Z,-1.43
2019-01-22T08:29:38.576Z,-1.43
2019-01-22T08:30:38.589Z,-1.52
2019-01-22T08:31:53.262Z,-1.4
2019-01-22T08:32:38.605Z,-1.54
2019-01-22T08:33:38.618Z,-1.45
2019-01-22T08:34:38.635Z,-1.4
2019-01-22T08:36:38.649Z,-1.28
2019-01-22T08:37:38.658Z,-1.4
2019-01-22T08:39:38.680Z,-1.23
2019-01-22T08:40:38.690Z,-1.25
2019-01-22T08:41:38.705Z,-1.17
2019-01-22T08:42:38.764Z,-1.19
2019-01-22T08:43:38.778Z,-1.05
2019-01-22T08:44:38.740Z,-1.16
2019-01-22T08:45:38.744Z,-1.09
2019-01-22T08:46:38.755Z,-1.12
2019-01-22T08:47:53.438Z,-1.13
2019-01-22T08:48:38.777Z,-1.01
2019-01-22T08:49:38.797Z,-1.02
2019-01-22T08:50:38.803Z,-1.01
2019-01-22T08:51:38.854Z,-0.99
2019-01-22T08:53:38.834Z,-0.94
2019-01-22T08:54:38.849Z,-0.92
2019-01-22T08:55:38.855Z,-0.92
2019-01-22T08:56:38.918Z,-0.83
2019-01-22T08:57:42.405Z,-0.91
2019-01-22T08:58:53.602Z,-0.83
2019-01-22T08:59:38.898Z,-0.76
2019-01-22T09:00:39.061Z,-0.8
2019-01-22T09:01:40.415Z,-0.8
2019-01-22T09:02:53.596Z,-0.65
2019-01-22T09:03:38.950Z,-0.67
2019-01-22T09:04:38.761Z,-0.67
2019-01-22T09:05:38.974Z,-0.72
2019-01-22T09:06:38.976Z,-0.58
2019-01-22T09:07:38.994Z,-0.6
2019-01-22T09:08:39.004Z,-0.65
2019-01-22T09:09:39.009Z,-0.65
2019-01-22T09:10:39.025Z,-0.61
2019-01-22T09:11:39.037Z,-0.7
2019-01-22T09:13:39.055Z,-0.54
2019-01-22T09:14:53.728Z,-0.44
2019-01-22T09:15:39.076Z,-0.43
2019-01-22T09:16:39.087Z,-0.33
2019-01-22T09:17:39.104Z,-0.34
2019-01-22T09:18:40.676Z,-0.23
2019-01-22T09:19:39.121Z,-0.29
2019-01-22T09:20:39.137Z,-0.37
2019-01-22T09:21:39.147Z,-0.37
2019-01-22T09:22:39.215Z,-0.31
2019-01-22T09:23:39.169Z,-0.39
2019-01-22T09:24:39.222Z,-0.23
2019-01-22T09:25:39.189Z,-0.22
2019-01-22T09:26:39.256Z,-0.36
2019-01-22T09:27:39.212Z,-0.37
2019-01-22T09:28:39.231Z,-0.37
2019-01-22T09:29:40.582Z,-0.33
2019-01-22T09:30:39.246Z,-0.44
2019-01-22T09:31:53.923Z,-0.43
2019-01-22T09:32:39.271Z,-0.37
2019-01-22T09:33:39.280Z,-0.36
2019-01-22T09:34:53.955Z,-0.21
2019-01-22T09:35:39.354Z,-0.25
2019-01-22T09:36:39.317Z,-0.15
2019-01-22T09:37:39.326Z,-0.03
2019-01-22T09:38:39.340Z,0.02
2019-01-22T09:39:39.350Z,0.07
2019-01-22T09:40:39.362Z,0.18
2019-01-22T09:41:39.373Z,0.14
2019-01-22T09:42:54.056Z,0.31
2019-01-22T09:43:39.398Z,0.28
2019-01-22T09:44:39.410Z,0.32
2019-01-22T09:45:39.423Z,0.29
2019-01-22T09:46:39.433Z,0.29
2019-01-22T09:47:54.105Z,0.36
2019-01-22T09:48:54.117Z,0.39
2019-01-22T09:49:40.274Z,0.38
2019-01-22T09:50:54.141Z,0.23
2019-01-22T09:51:39.493Z,0.32
2019-01-22T09:52:39.507Z,0.33
2019-01-22T09:53:39.517Z,0.14
2019-01-22T09:54:39.529Z,0.13
2019-01-22T09:55:39.541Z,0.11
2019-01-22T09:56:39.613Z,0.04
2019-01-22T09:57:39.726Z,0.11
2019-01-22T09:58:39.676Z,0.02
2019-01-22T09:59:39.585Z,0.07
2019-01-22T10:00:39.601Z,0.02
2019-01-22T10:01:39.610Z,0.03
2019-01-22T10:02:39.625Z,0.04
2019-01-22T10:03:54.296Z,-0.04
2019-01-22T10:04:39.649Z,-0.16
2019-01-22T10:05:39.659Z,-0.1
2019-01-22T10:06:54.332Z,-0.08
2019-01-22T10:07:39.687Z,-0.04
2019-01-22T10:08:39.694Z,-0.1
2019-01-22T10:09:39.707Z,-0.11
2019-01-22T10:10:39.765Z,-0.15
2019-01-22T10:11:39.787Z,-0.01
2019-01-22T10:12:39.741Z,-0.04
2019-01-22T10:13:39.752Z,-0.07
2019-01-22T10:14:39.770Z,-0.08
2019-01-22T10:15:39.781Z,-0.11
2019-01-22T10:16:54.454Z,-0.19
2019-01-22T10:17:39.799Z,-0.19
2019-01-22T10:18:39.863Z,-0.14
2019-01-22T10:19:39.823Z,-0.03
2019-01-22T10:20:39.886Z,-0.07
2019-01-22T10:21:39.846Z,-0.14
2019-01-22T10:22:54.520Z,-0.15
2019-01-22T10:23:39.871Z,-0.19
2019-01-22T10:24:39.935Z,-0.16
2019-01-22T10:25:39.992Z,-0.22
2019-01-22T10:26:39.908Z,-0.08
2019-01-22T10:27:39.919Z,-0.08
2019-01-22T10:28:40.486Z,-0.11
2019-01-22T10:29:39.951Z,-0.19
2019-01-22T10:30:39.957Z,-0.14
2019-01-22T10:31:39.965Z,-0.08
2019-01-22T10:32:39.976Z,-0.15
2019-01-22T10:33:54.652Z,-0.08
2019-01-22T10:34:40.001Z,-0.01
2019-01-22T10:35:54.672Z,-0.18
2019-01-22T10:36:40.126Z,-0.11
2019-01-22T10:37:54.698Z,-0.08
2019-01-22T10:38:40.051Z,-0.1
2019-01-22T10:39:40.103Z,0.07
2019-01-22T10:40:40.072Z,0
2019-01-22T10:41:40.083Z,0.02
2019-01-22T10:42:40.095Z,-0.05
2019-01-22T10:43:40.114Z,0.03
2019-01-22T10:45:40.130Z,0.1
2019-01-22T10:46:40.152Z,-0.01
2019-01-22T10:47:40.149Z,-0.03
2019-01-22T10:48:40.164Z,0.02
2019-01-22T10:49:40.178Z,0.08
2019-01-22T10:50:40.926Z,0
2019-01-22T10:51:40.200Z,0.13
2019-01-22T10:52:40.219Z,0.14
2019-01-22T10:53:40.222Z,0.1
2019-01-22T10:54:40.234Z,0.1
2019-01-22T10:55:41.191Z,0
2019-01-22T10:56:40.264Z,0.14
2019-01-22T10:58:40.283Z,0.13
2019-01-22T10:59:40.289Z,0.14
2019-01-22T11:00:40.312Z,0.13
2019-01-22T11:01:40.313Z,0.17
2019-01-22T11:02:40.424Z,0.18
2019-01-22T11:03:40.337Z,0.2
2019-01-22T11:04:40.449Z,0.26
2019-01-22T11:05:40.362Z,0.23
2019-01-22T11:06:55.033Z,0.17
2019-01-22T11:07:40.388Z,0.23
2019-01-22T11:08:40.397Z,0.29
2019-01-22T11:09:55.070Z,0.32
2019-01-22T11:10:40.470Z,0.18
2019-01-22T11:11:40.441Z,0.21
2019-01-22T11:12:40.442Z,0.23
2019-01-22T11:13:40.463Z,0.26
2019-01-22T11:14:40.515Z,0.29
2019-01-22T11:15:40.483Z,0.28
2019-01-22T11:16:40.499Z,0.32
2019-01-22T11:18:40.514Z,0.36
2019-01-22T11:19:55.189Z,0.33
2019-01-22T11:20:40.538Z,0.35
2019-01-22T11:21:40.548Z,0.49
2019-01-22T11:22:40.563Z,0.38
2019-01-22T11:23:40.640Z,0.41
2019-01-22T11:24:40.584Z,0.41
2019-01-22T11:25:55.260Z,0.33
2019-01-22T11:26:40.657Z,0.36
2019-01-22T11:27:40.626Z,0.24
2019-01-22T11:28:40.680Z,0.33
2019-01-22T11:29:40.645Z,0.53
2019-01-22T11:30:40.656Z,0.53
2019-01-22T11:31:40.665Z,0.57
2019-01-22T11:32:40.684Z,0.6
2019-01-22T11:36:40.729Z,0.68
2019-01-22T11:37:40.742Z,0.62
2019-01-22T11:38:40.749Z,0.7
2019-01-22T11:39:40.776Z,0.66
2019-01-22T11:40:40.779Z,0.79
2019-01-22T11:41:55.502Z,0.9
2019-01-22T11:42:40.796Z,0.84
2019-01-22T11:43:40.810Z,0.87
2019-01-22T11:44:40.871Z,0.88
2019-01-22T11:45:40.830Z,0.8
2019-01-22T11:46:40.848Z,0.84
2019-01-22T11:47:40.860Z,0.83
2019-01-22T11:48:40.968Z,0.9
2019-01-22T11:49:40.876Z,0.91
2019-01-22T11:50:40.890Z,0.91
2019-01-22T11:51:40.911Z,0.93
2019-01-22T11:52:40.913Z,0.98
2019-01-22T11:53:41.977Z,0.88
2019-01-22T11:54:40.936Z,0.84
2019-01-22T11:55:40.949Z,0.83
2019-01-22T11:56:40.965Z,0.87
2019-01-22T11:57:55.634Z,0.86
2019-01-22T11:58:41.037Z,0.98
2019-01-22T11:59:41.001Z,0.87
2019-01-22T12:00:41.009Z,0.93
2019-01-22T12:01:41.023Z,0.86
2019-01-22T12:03:41.048Z,0.91
2019-01-22T12:05:41.067Z,1.02
2019-01-22T12:06:40.854Z,0.97
2019-01-22T12:08:41.203Z,1.02
2019-01-22T12:09:41.168Z,1.02
2019-01-22T12:10:41.127Z,1
2019-01-22T12:11:41.140Z,1.08
2019-01-22T12:12:55.813Z,1.18
2019-01-22T12:13:41.167Z,1.05
2019-01-22T12:14:41.177Z,1.15
2019-01-22T12:15:41.189Z,0.97
2019-01-22T12:16:41.210Z,1.12
2019-01-22T12:17:41.210Z,1.06
2019-01-22T12:18:41.231Z,1.12
2019-01-22T12:19:41.235Z,1.11
2019-01-22T12:20:41.254Z,1.22
2019-01-22T12:21:41.310Z,1.16
2019-01-22T12:22:41.286Z,1.14
2019-01-22T12:23:41.287Z,1.08
2019-01-22T12:24:55.957Z,1.16
2019-01-22T12:25:41.311Z,1.11
2019-01-22T12:26:41.319Z,1.09
2019-01-22T12:27:41.330Z,1.15
2019-01-22T12:28:41.343Z,1.16
2019-01-22T12:29:41.360Z,1.12
2019-01-22T12:30:41.128Z,1.29
2019-01-22T12:31:41.378Z,1.23
2019-01-22T12:32:41.389Z,1.18
2019-01-22T12:33:41.401Z,1.22
2019-01-22T12:34:41.416Z,1.12
2019-01-22T12:35:41.424Z,1.14
2019-01-22T12:36:41.436Z,1.14
2019-01-22T12:37:41.449Z,1.09
2019-01-22T12:39:41.476Z,1.3
2019-01-22T12:40:41.483Z,1.29
2019-01-22T12:41:56.159Z,1.22
2019-01-22T12:42:41.510Z,1.16
2019-01-22T12:43:41.522Z,1.23
2019-01-22T12:44:56.199Z,1.14
2019-01-22T12:45:41.607Z,1.22
2019-01-22T12:46:41.574Z,1.12
2019-01-22T12:47:41.569Z,1.32
2019-01-22T12:48:41.586Z,1.37
2019-01-22T12:49:41.595Z,1.34
2019-01-22T12:51:41.667Z,1.4
2019-01-22T12:52:41.629Z,1.32
2019-01-22T12:53:45.642Z,1.34
2019-01-22T12:54:41.708Z,1.32
2019-01-22T12:55:41.668Z,1.32
2019-01-22T12:56:56.399Z,1.24
2019-01-22T12:57:41.692Z,1.29
2019-01-22T12:58:56.363Z,1.2
2019-01-22T12:59:41.716Z,1.4
2019-01-22T13:00:56.388Z,1.27
2019-01-22T13:01:41.739Z,1.3
2019-01-22T13:02:41.855Z,1.26
2019-01-22T13:03:41.761Z,1.27
2019-01-22T13:04:41.781Z,1.26
2019-01-22T13:05:41.834Z,1.15
2019-01-22T13:06:41.798Z,1.16
2019-01-22T13:07:41.827Z,1.15
2019-01-22T13:08:41.841Z,1.15
2019-01-22T13:09:41.834Z,1.27
2019-01-22T13:10:41.849Z,1.32
2019-01-22T13:11:41.862Z,1.36
2019-01-22T13:12:41.871Z,1.41
2019-01-22T13:13:56.544Z,1.36
2019-01-22T13:14:41.893Z,1.34
2019-01-22T13:15:41.905Z,1.32
2019-01-22T13:16:56.582Z,1.18
2019-01-22T13:17:41.932Z,1.4
2019-01-22T13:18:41.947Z,1.27
2019-01-22T13:19:41.972Z,1.23
2019-01-22T13:20:41.967Z,1.33
2019-01-22T13:21:41.977Z,1.33
2019-01-22T13:22:41.989Z,1.27
2019-01-22T13:23:42.016Z,1.36
2019-01-22T13:26:42.045Z,1.32
2019-01-22T13:27:56.715Z,1.34
2019-01-22T13:28:42.274Z,1.23
2019-01-22T13:29:42.074Z,1.16
2019-01-22T13:30:42.101Z,1.33
2019-01-22T13:31:42.098Z,1.27
2019-01-22T13:32:56.775Z,1.34
2019-01-22T13:33:42.122Z,1.41
2019-01-22T13:34:42.134Z,1.29
2019-01-22T13:35:42.145Z,1.47
2019-01-22T13:36:42.163Z,1.34
2019-01-22T13:38:42.201Z,1.3
2019-01-22T13:39:42.196Z,1.34
2019-01-22T13:40:56.874Z,1.2
2019-01-22T13:41:42.222Z,1.32
2019-01-22T13:42:42.236Z,1.29
2019-01-22T13:43:42.243Z,1.29
2019-01-22T13:44:42.314Z,1.27
2019-01-22T13:45:42.275Z,1.3
2019-01-22T13:46:42.285Z,1.24
2019-01-22T13:47:56.955Z,1.23